AAL2053 KBNA-KCLT
Flight info
| Callsign | AAL2053 |
|---|---|
| Flight time | 0h 54m |
| Altitude | 31000 |
| Route | TAZMO4 BURME COMDY FILPZ4 |
| Aircraft | A321/M-SDE3FGHIRWY/LB1 |
Departure
| Time | 2026-05-07 22:47 |
|---|---|
| Airport | Nashville International Airport (KBNA) |
Arrival
| Time | 2026-05-07 23:41 |
|---|---|
| Airport | Charlotte Douglas International Airport (KCLT) |
| Time | Latitude | Longitude | Altitude | Speed | Heading |
|---|---|---|---|---|---|
| 2026-05-07 22:17 | 36.12818 | -86.67040 | 569 ft | 0 kts | 41° |
| 2026-05-07 22:32 | 36.12805 | -86.67055 | 569 ft | 4 kts | 41° |
| 2026-05-07 22:32 | 36.12788 | -86.67072 | 569 ft | 4 kts | 28° |
| 2026-05-07 22:33 | 36.12764 | -86.67080 | 569 ft | 4 kts | 347° |
| 2026-05-07 22:33 | 36.12742 | -86.67065 | 569 ft | 3 kts | 311° |
| 2026-05-07 22:33 | 36.12739 | -86.67061 | 569 ft | 0 kts | 310° |
| 2026-05-07 22:39 | 36.12743 | -86.67067 | 569 ft | 3 kts | 310° |
| 2026-05-07 22:39 | 36.12771 | -86.67109 | 569 ft | 9 kts | 310° |
| 2026-05-07 22:40 | 36.12827 | -86.67187 | 569 ft | 14 kts | 313° |
| 2026-05-07 22:40 | 36.12846 | -86.67278 | 569 ft | 12 kts | 233° |
| 2026-05-07 22:40 | 36.12789 | -86.67349 | 572 ft | 12 kts | 223° |
| 2026-05-07 22:40 | 36.12736 | -86.67430 | 574 ft | 11 kts | 261° |
| 2026-05-07 22:41 | 36.12783 | -86.67518 | 574 ft | 14 kts | 313° |
| 2026-05-07 22:41 | 36.12861 | -86.67619 | 572 ft | 18 kts | 313° |
| 2026-05-07 22:41 | 36.12952 | -86.67738 | 571 ft | 19 kts | 313° |
| 2026-05-07 22:41 | 36.13034 | -86.67846 | 573 ft | 16 kts | 313° |
| 2026-05-07 22:42 | 36.13077 | -86.67925 | 573 ft | 8 kts | 263° |
| 2026-05-07 22:42 | 36.13035 | -86.67963 | 573 ft | 9 kts | 200° |
| 2026-05-07 22:42 | 36.12955 | -86.67997 | 574 ft | 16 kts | 197° |
| 2026-05-07 22:42 | 36.12835 | -86.68044 | 577 ft | 18 kts | 198° |
| 2026-05-07 22:43 | 36.12711 | -86.68090 | 575 ft | 20 kts | 196° |
| 2026-05-07 22:43 | 36.12554 | -86.68147 | 574 ft | 27 kts | 196° |
| 2026-05-07 22:43 | 36.12357 | -86.68218 | 573 ft | 32 kts | 194° |
| 2026-05-07 22:43 | 36.12161 | -86.68286 | 575 ft | 28 kts | 196° |
| 2026-05-07 22:44 | 36.11976 | -86.68353 | 577 ft | 27 kts | 196° |
| 2026-05-07 22:44 | 36.11808 | -86.68412 | 582 ft | 21 kts | 196° |
| 2026-05-07 22:44 | 36.11739 | -86.68477 | 582 ft | 12 kts | 264° |
| 2026-05-07 22:44 | 36.11749 | -86.68526 | 580 ft | 0 kts | 288° |
| 2026-05-07 22:45 | 36.11759 | -86.68565 | 578 ft | 11 kts | 289° |
| 2026-05-07 22:45 | 36.11814 | -86.68628 | 576 ft | 13 kts | 8° |
| 2026-05-07 22:46 | 36.11833 | -86.68621 | 576 ft | 0 kts | 17° |
| 2026-05-07 22:46 | 36.11849 | -86.68615 | 576 ft | 12 kts | 17° |
| 2026-05-07 22:46 | 36.12159 | -86.68492 | 571 ft | 85 kts | 17° |
| 2026-05-07 22:46 | 36.12935 | -86.68190 | 577 ft | 146 kts | 17° |
| 2026-05-07 22:47 | 36.14034 | -86.67753 | 805 ft | 172 kts | 17° |
| 2026-05-07 22:47 | 36.15072 | -86.67051 | 1523 ft | 172 kts | 41° |
| 2026-05-07 22:47 | 36.15847 | -86.65925 | 2213 ft | 172 kts | 51° |
| 2026-05-07 22:47 | 36.16618 | -86.64720 | 2530 ft | 189 kts | 51° |
| 2026-05-07 22:48 | 36.17483 | -86.63368 | 2712 ft | 211 kts | 52° |
| 2026-05-07 22:48 | 36.18444 | -86.61870 | 2830 ft | 235 kts | 52° |
| 2026-05-07 22:48 | 36.19517 | -86.60198 | 3098 ft | 260 kts | 51° |
| 2026-05-07 22:48 | 36.20661 | -86.58408 | 3724 ft | 269 kts | 52° |
| 2026-05-07 22:49 | 36.21796 | -86.56538 | 4466 ft | 274 kts | 60° |
| 2026-05-07 22:49 | 36.22312 | -86.54282 | 5170 ft | 277 kts | 91° |
| 2026-05-07 22:49 | 36.21940 | -86.51944 | 5892 ft | 279 kts | 107° |
| 2026-05-07 22:49 | 36.21364 | -86.49630 | 6609 ft | 283 kts | 108° |
| 2026-05-07 22:50 | 36.20773 | -86.47285 | 7279 ft | 286 kts | 108° |
| 2026-05-07 22:50 | 36.20177 | -86.44926 | 7966 ft | 289 kts | 108° |
| 2026-05-07 22:50 | 36.19539 | -86.42550 | 8613 ft | 292 kts | 113° |
| 2026-05-07 22:50 | 36.18740 | -86.40219 | 9236 ft | 295 kts | 114° |
| 2026-05-07 22:51 | 36.17916 | -86.37877 | 9844 ft | 298 kts | 114° |
| 2026-05-07 22:51 | 36.17065 | -86.35487 | 10179 ft | 312 kts | 114° |
| 2026-05-07 22:51 | 36.16173 | -86.32991 | 10377 ft | 328 kts | 114° |
| 2026-05-07 22:51 | 36.15241 | -86.30379 | 10835 ft | 334 kts | 114° |
| 2026-05-07 22:52 | 36.14300 | -86.27733 | 11354 ft | 338 kts | 114° |
| 2026-05-07 22:52 | 36.13349 | -86.25055 | 11868 ft | 341 kts | 114° |
| 2026-05-07 22:52 | 36.12393 | -86.22354 | 12368 ft | 344 kts | 114° |
| 2026-05-07 22:52 | 36.11428 | -86.19629 | 12849 ft | 347 kts | 114° |
| 2026-05-07 22:53 | 36.10455 | -86.16886 | 13314 ft | 350 kts | 114° |
| 2026-05-07 22:53 | 36.09473 | -86.14121 | 13762 ft | 353 kts | 114° |
| 2026-05-07 22:53 | 36.08480 | -86.11332 | 14196 ft | 355 kts | 114° |
| 2026-05-07 22:53 | 36.07529 | -86.08499 | 14608 ft | 358 kts | 108° |
| 2026-05-07 22:54 | 36.06986 | -86.05483 | 15004 ft | 361 kts | 96° |
| 2026-05-07 22:54 | 36.06765 | -86.02379 | 15391 ft | 364 kts | 95° |
| 2026-05-07 22:54 | 36.06551 | -85.99253 | 15768 ft | 366 kts | 95° |
| 2026-05-07 22:54 | 36.06334 | -85.96111 | 16129 ft | 368 kts | 95° |
| 2026-05-07 22:55 | 36.06116 | -85.92983 | 16473 ft | 371 kts | 95° |
| 2026-05-07 22:55 | 36.05893 | -85.89760 | 16819 ft | 373 kts | 95° |
| 2026-05-07 22:55 | 36.05669 | -85.86557 | 17149 ft | 375 kts | 95° |
| 2026-05-07 22:55 | 36.05442 | -85.83333 | 17471 ft | 378 kts | 95° |
| 2026-05-07 22:56 | 36.05214 | -85.80132 | 17783 ft | 380 kts | 95° |
| 2026-05-07 22:56 | 36.04981 | -85.76876 | 18091 ft | 382 kts | 95° |
| 2026-05-07 22:56 | 36.04749 | -85.73599 | 18390 ft | 384 kts | 95° |
| 2026-05-07 22:56 | 36.04517 | -85.70306 | 18679 ft | 386 kts | 95° |
| 2026-05-07 22:57 | 36.04286 | -85.66996 | 18959 ft | 388 kts | 95° |
| 2026-05-07 22:57 | 36.04055 | -85.63665 | 19229 ft | 390 kts | 95° |
| 2026-05-07 22:57 | 36.03821 | -85.60319 | 19491 ft | 392 kts | 95° |
| 2026-05-07 22:57 | 36.03585 | -85.56953 | 19751 ft | 393 kts | 95° |
| 2026-05-07 22:58 | 36.03345 | -85.53580 | 19998 ft | 395 kts | 95° |
| 2026-05-07 22:58 | 36.03103 | -85.50192 | 20242 ft | 397 kts | 95° |
| 2026-05-07 22:58 | 36.02857 | -85.46782 | 20481 ft | 399 kts | 95° |
| 2026-05-07 22:58 | 36.02610 | -85.43357 | 20713 ft | 400 kts | 95° |
| 2026-05-07 22:59 | 36.02364 | -85.39930 | 20938 ft | 402 kts | 95° |
| 2026-05-07 22:59 | 36.02115 | -85.36479 | 21169 ft | 404 kts | 95° |
| 2026-05-07 22:59 | 36.01860 | -85.33019 | 21388 ft | 405 kts | 95° |
| 2026-05-07 22:59 | 36.01599 | -85.29542 | 21600 ft | 407 kts | 95° |
| 2026-05-07 23:00 | 36.01338 | -85.26048 | 21808 ft | 409 kts | 95° |
| 2026-05-07 23:00 | 36.01080 | -85.22546 | 22011 ft | 410 kts | 95° |
| 2026-05-07 23:00 | 36.00820 | -85.19034 | 22208 ft | 412 kts | 95° |
| 2026-05-07 23:00 | 36.00558 | -85.15511 | 22403 ft | 413 kts | 95° |
| 2026-05-07 23:01 | 36.00298 | -85.12019 | 22586 ft | 414 kts | 95° |
| 2026-05-07 23:01 | 36.00032 | -85.08467 | 22767 ft | 416 kts | 95° |
| 2026-05-07 23:01 | 35.99765 | -85.04907 | 22945 ft | 417 kts | 95° |
| 2026-05-07 23:01 | 35.99514 | -85.01331 | 23121 ft | 418 kts | 95° |
| 2026-05-07 23:02 | 35.99294 | -84.97744 | 23290 ft | 420 kts | 94° |
| 2026-05-07 23:02 | 35.99092 | -84.94136 | 23455 ft | 421 kts | 94° |
| 2026-05-07 23:02 | 35.98896 | -84.90531 | 23617 ft | 422 kts | 94° |
| 2026-05-07 23:02 | 35.98692 | -84.86905 | 23778 ft | 424 kts | 94° |
| 2026-05-07 23:03 | 35.98479 | -84.83271 | 23940 ft | 425 kts | 94° |
| 2026-05-07 23:03 | 35.98259 | -84.79626 | 24093 ft | 426 kts | 95° |
| 2026-05-07 23:03 | 35.98032 | -84.75974 | 24241 ft | 427 kts | 95° |
| 2026-05-07 23:03 | 35.97803 | -84.72310 | 24383 ft | 428 kts | 95° |
| 2026-05-07 23:04 | 35.97576 | -84.68641 | 24522 ft | 430 kts | 95° |
| 2026-05-07 23:04 | 35.97348 | -84.64958 | 24653 ft | 431 kts | 95° |
| 2026-05-07 23:04 | 35.97119 | -84.61266 | 24780 ft | 432 kts | 95° |
| 2026-05-07 23:04 | 35.96887 | -84.57570 | 24905 ft | 433 kts | 95° |
| 2026-05-07 23:05 | 35.96651 | -84.53864 | 25031 ft | 433 kts | 95° |
| 2026-05-07 23:05 | 35.96411 | -84.50155 | 25155 ft | 434 kts | 95° |
| 2026-05-07 23:05 | 35.96169 | -84.46441 | 25280 ft | 434 kts | 95° |
| 2026-05-07 23:05 | 35.95929 | -84.42715 | 25405 ft | 435 kts | 95° |
| 2026-05-07 23:06 | 35.95690 | -84.38996 | 25530 ft | 435 kts | 95° |
| 2026-05-07 23:06 | 35.95450 | -84.35270 | 25655 ft | 436 kts | 95° |
| 2026-05-07 23:06 | 35.95208 | -84.31543 | 25779 ft | 436 kts | 95° |
| 2026-05-07 23:06 | 35.94967 | -84.27860 | 25902 ft | 436 kts | 95° |
| 2026-05-07 23:07 | 35.94722 | -84.24082 | 26028 ft | 436 kts | 95° |
| 2026-05-07 23:07 | 35.94481 | -84.20397 | 26151 ft | 437 kts | 95° |
| 2026-05-07 23:07 | 35.94232 | -84.16656 | 26276 ft | 437 kts | 95° |
| 2026-05-07 23:07 | 35.93981 | -84.12922 | 26401 ft | 437 kts | 95° |
| 2026-05-07 23:08 | 35.93729 | -84.09187 | 26525 ft | 437 kts | 95° |
| 2026-05-07 23:08 | 35.93476 | -84.05450 | 26649 ft | 437 kts | 95° |
| 2026-05-07 23:08 | 35.93224 | -84.01713 | 26774 ft | 437 kts | 95° |
| 2026-05-07 23:08 | 35.92971 | -83.97978 | 26899 ft | 437 kts | 95° |
| 2026-05-07 23:09 | 35.92717 | -83.94244 | 27023 ft | 437 kts | 95° |
| 2026-05-07 23:09 | 35.92463 | -83.90511 | 27148 ft | 437 kts | 95° |
| 2026-05-07 23:09 | 35.92204 | -83.86774 | 27272 ft | 437 kts | 95° |
| 2026-05-07 23:09 | 35.91940 | -83.83043 | 27397 ft | 437 kts | 95° |
| 2026-05-07 23:10 | 35.91674 | -83.79316 | 27521 ft | 436 kts | 95° |
| 2026-05-07 23:10 | 35.91496 | -83.76795 | 27606 ft | 436 kts | 95° |
| 2026-05-07 23:10 | 35.91239 | -83.73111 | 27729 ft | 436 kts | 95° |
| 2026-05-07 23:10 | 35.90981 | -83.69390 | 27853 ft | 436 kts | 95° |
| 2026-05-07 23:11 | 35.90720 | -83.65666 | 27978 ft | 436 kts | 95° |
| 2026-05-07 23:11 | 35.90459 | -83.61939 | 28103 ft | 435 kts | 95° |
| 2026-05-07 23:11 | 35.90196 | -83.58214 | 28227 ft | 435 kts | 95° |
| 2026-05-07 23:11 | 35.89930 | -83.54500 | 28352 ft | 435 kts | 95° |
| 2026-05-07 23:12 | 35.89662 | -83.50786 | 28477 ft | 435 kts | 95° |
| 2026-05-07 23:12 | 35.89346 | -83.47079 | 28602 ft | 434 kts | 100° |
| 2026-05-07 23:12 | 35.88659 | -83.43465 | 28728 ft | 433 kts | 105° |
| 2026-05-07 23:12 | 35.87858 | -83.39883 | 28853 ft | 433 kts | 105° |
| 2026-05-07 23:13 | 35.87060 | -83.36312 | 28978 ft | 433 kts | 105° |
| 2026-05-07 23:13 | 35.86262 | -83.32738 | 29102 ft | 432 kts | 105° |
| 2026-05-07 23:13 | 35.85466 | -83.29163 | 29227 ft | 432 kts | 105° |
| 2026-05-07 23:13 | 35.84670 | -83.25593 | 29351 ft | 432 kts | 105° |
| 2026-05-07 23:14 | 35.83874 | -83.22031 | 29476 ft | 431 kts | 105° |
| 2026-05-07 23:14 | 35.83076 | -83.18467 | 29601 ft | 431 kts | 105° |
| 2026-05-07 23:14 | 35.82279 | -83.14908 | 29726 ft | 430 kts | 105° |
| 2026-05-07 23:14 | 35.81490 | -83.11353 | 29851 ft | 430 kts | 105° |
| 2026-05-07 23:15 | 35.80702 | -83.07796 | 29976 ft | 430 kts | 105° |
| 2026-05-07 23:15 | 35.79915 | -83.04242 | 30101 ft | 429 kts | 105° |
| 2026-05-07 23:15 | 35.79128 | -83.00697 | 30226 ft | 429 kts | 105° |
| 2026-05-07 23:15 | 35.78342 | -82.97160 | 30350 ft | 428 kts | 105° |
| 2026-05-07 23:16 | 35.77567 | -82.93665 | 30473 ft | 428 kts | 105° |
| 2026-05-07 23:16 | 35.76778 | -82.90137 | 30598 ft | 427 kts | 105° |
| 2026-05-07 23:16 | 35.75986 | -82.86606 | 30723 ft | 427 kts | 105° |
| 2026-05-07 23:16 | 35.75193 | -82.83089 | 30856 ft | 426 kts | 106° |
| 2026-05-07 23:17 | 35.74400 | -82.79578 | 30983 ft | 426 kts | 106° |
| 2026-05-07 23:17 | 35.72811 | -82.72545 | 31009 ft | 427 kts | 106° |
| 2026-05-07 23:18 | 35.71222 | -82.65500 | 31009 ft | 427 kts | 106° |
| 2026-05-07 23:18 | 35.69621 | -82.58462 | 31010 ft | 428 kts | 106° |
| 2026-05-07 23:18 | 35.68816 | -82.54936 | 30791 ft | 429 kts | 106° |
| 2026-05-07 23:19 | 35.68006 | -82.51382 | 30092 ft | 433 kts | 106° |
| 2026-05-07 23:19 | 35.67187 | -82.47803 | 29461 ft | 434 kts | 106° |
| 2026-05-07 23:19 | 35.66368 | -82.44241 | 29003 ft | 431 kts | 106° |
| 2026-05-07 23:19 | 35.65557 | -82.40709 | 28554 ft | 428 kts | 106° |
| 2026-05-07 23:20 | 35.64750 | -82.37190 | 28119 ft | 426 kts | 106° |
| 2026-05-07 23:20 | 35.63947 | -82.33703 | 27681 ft | 423 kts | 106° |
| 2026-05-07 23:20 | 35.63143 | -82.30233 | 27246 ft | 420 kts | 106° |
| 2026-05-07 23:20 | 35.62341 | -82.26788 | 26798 ft | 418 kts | 106° |
| 2026-05-07 23:21 | 35.61545 | -82.23367 | 26347 ft | 415 kts | 106° |
| 2026-05-07 23:21 | 35.60755 | -82.19962 | 25837 ft | 414 kts | 106° |
| 2026-05-07 23:21 | 35.59970 | -82.16579 | 25488 ft | 409 kts | 106° |
| 2026-05-07 23:21 | 35.59199 | -82.13244 | 24985 ft | 401 kts | 106° |
| 2026-05-07 23:22 | 35.58443 | -82.09990 | 24281 ft | 390 kts | 106° |
| 2026-05-07 23:22 | 35.57697 | -82.06828 | 23861 ft | 390 kts | 108° |
| 2026-05-07 23:22 | 35.56670 | -82.03714 | 23386 ft | 387 kts | 114° |
| 2026-05-07 23:22 | 35.55582 | -82.00705 | 22921 ft | 385 kts | 114° |
| 2026-05-07 23:23 | 35.54518 | -81.97751 | 22466 ft | 382 kts | 114° |
| 2026-05-07 23:23 | 35.53450 | -81.94781 | 22008 ft | 378 kts | 114° |
| 2026-05-07 23:23 | 35.52386 | -81.91831 | 21569 ft | 378 kts | 114° |
| 2026-05-07 23:23 | 35.51320 | -81.88887 | 21097 ft | 376 kts | 114° |
| 2026-05-07 23:24 | 35.50262 | -81.85971 | 20651 ft | 373 kts | 114° |
| 2026-05-07 23:24 | 35.49212 | -81.83076 | 20235 ft | 369 kts | 114° |
| 2026-05-07 23:24 | 35.48170 | -81.80208 | 19760 ft | 367 kts | 114° |
| 2026-05-07 23:24 | 35.47135 | -81.77356 | 19357 ft | 363 kts | 114° |
| 2026-05-07 23:25 | 35.46108 | -81.74532 | 18884 ft | 361 kts | 114° |
| 2026-05-07 23:25 | 35.45086 | -81.71729 | 18453 ft | 358 kts | 114° |
| 2026-05-07 23:25 | 35.44078 | -81.68960 | 18123 ft | 353 kts | 114° |
| 2026-05-07 23:25 | 35.43222 | -81.66159 | 17651 ft | 351 kts | 109° |
| 2026-05-07 23:26 | 35.42432 | -81.63352 | 17308 ft | 346 kts | 109° |
| 2026-05-07 23:26 | 35.41643 | -81.60550 | 16843 ft | 345 kts | 109° |
| 2026-05-07 23:26 | 35.40866 | -81.57790 | 16497 ft | 341 kts | 109° |
| 2026-05-07 23:26 | 35.40094 | -81.55054 | 16100 ft | 338 kts | 109° |
| 2026-05-07 23:27 | 35.38559 | -81.49642 | 15292 ft | 334 kts | 109° |
| 2026-05-07 23:27 | 35.37799 | -81.46962 | 14885 ft | 332 kts | 109° |
| 2026-05-07 23:27 | 35.37046 | -81.44304 | 14478 ft | 330 kts | 109° |
| 2026-05-07 23:28 | 35.36295 | -81.41657 | 14075 ft | 328 kts | 109° |
| 2026-05-07 23:28 | 35.35549 | -81.39027 | 13682 ft | 325 kts | 109° |
| 2026-05-07 23:28 | 35.34810 | -81.36424 | 13279 ft | 324 kts | 109° |
| 2026-05-07 23:28 | 35.34072 | -81.33828 | 12923 ft | 320 kts | 109° |
| 2026-05-07 23:29 | 35.33339 | -81.31254 | 12512 ft | 319 kts | 110° |
| 2026-05-07 23:29 | 35.32618 | -81.28732 | 12111 ft | 318 kts | 110° |
| 2026-05-07 23:29 | 35.31894 | -81.26196 | 11769 ft | 314 kts | 109° |
| 2026-05-07 23:29 | 35.31176 | -81.23673 | 11378 ft | 312 kts | 109° |
| 2026-05-07 23:30 | 35.30463 | -81.21171 | 11021 ft | 309 kts | 109° |
| 2026-05-07 23:30 | 35.29759 | -81.18704 | 10836 ft | 305 kts | 110° |
| 2026-05-07 23:30 | 35.29061 | -81.16259 | 10638 ft | 304 kts | 110° |
| 2026-05-07 23:30 | 35.28376 | -81.13854 | 10506 ft | 294 kts | 109° |
| 2026-05-07 23:31 | 35.27716 | -81.11534 | 10379 ft | 284 kts | 109° |
| 2026-05-07 23:31 | 35.26941 | -81.09368 | 10248 ft | 273 kts | 126° |
| 2026-05-07 23:31 | 35.25615 | -81.07803 | 10120 ft | 261 kts | 149° |
| 2026-05-07 23:31 | 35.23907 | -81.07031 | 9573 ft | 267 kts | 174° |
| 2026-05-07 23:32 | 35.22027 | -81.06866 | 9056 ft | 274 kts | 177° |
| 2026-05-07 23:32 | 35.20148 | -81.06716 | 8882 ft | 266 kts | 176° |
| 2026-05-07 23:32 | 35.18331 | -81.06562 | 8752 ft | 257 kts | 176° |
| 2026-05-07 23:32 | 35.16584 | -81.06408 | 8621 ft | 248 kts | 176° |
| 2026-05-07 23:33 | 35.14881 | -81.06256 | 8380 ft | 244 kts | 176° |
| 2026-05-07 23:33 | 35.13192 | -81.06104 | 8078 ft | 242 kts | 176° |
| 2026-05-07 23:33 | 35.11520 | -81.05955 | 7768 ft | 241 kts | 176° |
| 2026-05-07 23:33 | 35.09855 | -81.05807 | 7456 ft | 239 kts | 176° |
| 2026-05-07 23:34 | 35.08199 | -81.05660 | 7141 ft | 238 kts | 176° |
| 2026-05-07 23:34 | 35.06560 | -81.05508 | 6829 ft | 237 kts | 176° |
| 2026-05-07 23:34 | 35.04914 | -81.05353 | 6511 ft | 235 kts | 176° |
| 2026-05-07 23:34 | 35.03287 | -81.05200 | 6192 ft | 234 kts | 176° |
| 2026-05-07 23:35 | 35.01678 | -81.04962 | 5869 ft | 232 kts | 162° |
| 2026-05-07 23:35 | 35.00338 | -81.03921 | 5542 ft | 231 kts | 129° |
| 2026-05-07 23:35 | 34.99687 | -81.02173 | 5252 ft | 227 kts | 95° |
| 2026-05-07 23:35 | 34.99732 | -81.00304 | 5141 ft | 214 kts | 84° |
| 2026-05-07 23:36 | 34.99916 | -80.98544 | 5000 ft | 204 kts | 82° |
| 2026-05-07 23:36 | 35.00112 | -80.96851 | 4767 ft | 200 kts | 82° |
| 2026-05-07 23:36 | 35.00336 | -80.95185 | 4472 ft | 199 kts | 73° |
| 2026-05-07 23:36 | 35.01101 | -80.93836 | 4179 ft | 196 kts | 34° |
| 2026-05-07 23:37 | 35.02281 | -80.93050 | 3948 ft | 188 kts | 24° |
| 2026-05-07 23:37 | 35.03441 | -80.92437 | 3816 ft | 176 kts | 22° |
| 2026-05-07 23:37 | 35.04575 | -80.92089 | 3689 ft | 164 kts | 358° |
| 2026-05-07 23:37 | 35.05690 | -80.92174 | 3517 ft | 158 kts | 355° |
| 2026-05-07 23:38 | 35.06765 | -80.92268 | 3330 ft | 156 kts | 355° |
| 2026-05-07 23:38 | 35.07857 | -80.92362 | 3128 ft | 155 kts | 355° |
| 2026-05-07 23:38 | 35.08913 | -80.92453 | 2930 ft | 154 kts | 355° |
| 2026-05-07 23:38 | 35.09975 | -80.92544 | 2760 ft | 153 kts | 355° |
| 2026-05-07 23:39 | 35.11035 | -80.92635 | 2534 ft | 152 kts | 355° |
| 2026-05-07 23:39 | 35.12090 | -80.92725 | 2324 ft | 152 kts | 355° |
| 2026-05-07 23:39 | 35.13142 | -80.92815 | 2119 ft | 151 kts | 355° |
| 2026-05-07 23:39 | 35.14189 | -80.92905 | 1917 ft | 151 kts | 355° |
| 2026-05-07 23:40 | 35.15233 | -80.92994 | 1717 ft | 150 kts | 355° |
| 2026-05-07 23:40 | 35.16273 | -80.93084 | 1518 ft | 150 kts | 355° |
| 2026-05-07 23:40 | 35.17312 | -80.93171 | 1294 ft | 149 kts | 355° |
| 2026-05-07 23:40 | 35.18347 | -80.93261 | 1089 ft | 149 kts | 354° |
| 2026-05-07 23:41 | 35.19376 | -80.93351 | 898 ft | 148 kts | 354° |
| 2026-05-07 23:41 | 35.20399 | -80.93439 | 742 ft | 141 kts | 355° |
| 2026-05-07 23:41 | 35.21232 | -80.93510 | 734 ft | 85 kts | 356° |
| 2026-05-07 23:41 | 35.21536 | -80.93537 | 735 ft | 18 kts | 352° |
| 2026-05-07 23:42 | 35.21569 | -80.93599 | 734 ft | 1 kts | 275° |
| 2026-05-07 23:42 | 35.21568 | -80.93615 | 734 ft | 5 kts | 268° |
| 2026-05-07 23:42 | 35.21568 | -80.93657 | 733 ft | 4 kts | 271° |
| 2026-05-07 23:42 | 35.21579 | -80.93694 | 733 ft | 6 kts | 294° |
| 2026-05-07 23:43 | 35.21608 | -80.93740 | 733 ft | 8 kts | 310° |
| 2026-05-07 23:43 | 35.21643 | -80.93790 | 733 ft | 9 kts | 310° |
| 2026-05-07 23:43 | 35.21692 | -80.93860 | 733 ft | 12 kts | 314° |
| 2026-05-07 23:43 | 35.21745 | -80.93919 | 732 ft | 8 kts | 320° |
| 2026-05-07 23:44 | 35.21768 | -80.93943 | 732 ft | 1 kts | 319° |
| 2026-05-07 23:44 | 35.21789 | -80.93966 | 732 ft | 7 kts | 318° |
| 2026-05-07 23:44 | 35.21803 | -80.94023 | 732 ft | 8 kts | 249° |
| 2026-05-07 23:44 | 35.21762 | -80.94075 | 732 ft | 9 kts | 227° |
| 2026-05-07 23:45 | 35.21732 | -80.94117 | 732 ft | 5 kts | 237° |
| 2026-05-07 23:45 | 35.21734 | -80.94161 | 732 ft | 6 kts | 266° |
| 2026-05-07 23:45 | 35.21746 | -80.94199 | 732 ft | 3 kts | 323° |
| 2026-05-07 23:45 | 35.21751 | -80.94202 | 732 ft | 0 kts | 330° |